Аэропорт: Петропавловск. Петропавловск

ICAO: UACP

METAR:
2020-08-12 06:30:00
UACP 120630Z 28005MPS 9999 BKN015 BKN026CB 20/16 Q0996 R23/1/0258 NOSIG RMK QFE734/0979
METAR:
2020-08-12 05:04:00
TAF UACP 120504Z 1206/1215 28005MPS 9999 BKN010CB TEMPO 1206/1212 31005G10MPS -SHRA SCT008 BKN015CB